Time;durP1;ratioP1;P1;durP2;ratioP2;P2;SDS_P1;SDS_P2;PMS_P1;PMS_P2;Temp;Humidity;BMP_temperature;BMP_pressure;BME280_temperature;BME280_humidity;BME280_pressure;Samples;Min_cycle;Max_cycle;Signal;HPM_P1;HPM_P2
2021/10/29 00:01:06;;;;;;;43.53;22.50;;;7.80;98.10;;;;;;5034078;28;20522;-73
2021/10/29 00:03:32;;;;;;;45.50;21.23;;;7.60;98.00;;;;;;5031933;28;20621;-74
2021/10/29 00:05:58;;;;;;;40.93;19.90;;;7.60;98.20;;;;;;5032636;28;20186;-73
2021/10/29 00:08:23;;;;;;;47.00;22.57;;;7.70;98.30;;;;;;5031753;28;20208;-72
2021/10/29 00:10:49;;;;;;;44.97;21.10;;;7.70;98.40;;;;;;5032486;28;20189;-74
2021/10/29 00:13:16;;;;;;;38.70;18.83;;;7.70;98.40;;;;;;5031922;28;20227;-72
2021/10/29 00:15:42;;;;;;;44.63;23.07;;;7.60;98.40;;;;;;5031868;28;20173;-72
2021/10/29 00:18:08;;;;;;;34.57;18.03;;;7.60;98.50;;;;;;5032562;28;20963;-74
2021/10/29 00:20:33;;;;;;;37.90;17.40;;;7.70;98.40;;;;;;5032981;28;20185;-74
2021/10/29 00:22:59;;;;;;;34.33;18.87;;;7.50;97.20;;;;;;5030605;28;20466;-73
2021/10/29 00:25:25;;;;;;;38.70;19.50;;;7.40;97.40;;;;;;5032036;28;20234;-72
2021/10/29 00:27:51;;;;;;;39.67;20.33;;;7.30;97.70;;;;;;5043933;28;20843;-72
2021/10/29 00:30:17;;;;;;;43.17;21.47;;;7.30;97.90;;;;;;5044142;28;20412;-74
2021/10/29 00:32:43;;;;;;;51.53;24.20;;;7.30;98.10;;;;;;5048415;28;20209;-74
2021/10/29 00:35:08;;;;;;;66.83;28.40;;;7.40;98.30;;;;;;5035940;28;20834;-71
2021/10/29 00:37:39;;;;;;;59.13;29.50;;;7.40;98.50;;;;;;5030531;28;20529;-73
2021/10/29 00:40:08;;;;;;;67.93;31.60;;;7.50;98.50;;;;;;5030635;28;20307;-74
2021/10/29 00:42:33;;;;;;;53.43;25.87;;;7.40;98.50;;;;;;5029001;28;20436;-72
2021/10/29 00:44:59;;;;;;;39.47;19.63;;;7.40;98.70;;;;;;5028712;28;21145;-74
2021/10/29 00:47:25;;;;;;;46.67;22.17;;;7.50;98.80;;;;;;5028935;28;20268;-74
2021/10/29 00:49:51;;;;;;;41.67;22.30;;;7.50;98.80;;;;;;5030397;28;20193;-72
2021/10/29 00:52:17;;;;;;;46.27;22.20;;;7.50;98.90;;;;;;5029776;28;20189;-73
2021/10/29 00:54:43;;;;;;;43.37;21.70;;;7.50;98.80;;;;;;5027761;28;20227;-72
2021/10/29 00:57:09;;;;;;;37.57;19.33;;;7.50;98.90;;;;;;5029658;28;20427;-71
2021/10/29 00:59:35;;;;;;;43.23;21.63;;;7.50;98.90;;;;;;5030196;28;20460;-72
2021/10/29 01:02:01;;;;;;;38.87;19.60;;;7.50;98.80;;;;;;5029465;28;20474;-72
2021/10/29 01:04:27;;;;;;;46.90;22.30;;;7.50;98.80;;;;;;5030220;28;20470;-72
2021/10/29 01:06:53;;;;;;;39.93;18.57;;;7.50;98.70;;;;;;5030753;28;20489;-73
2021/10/29 01:09:19;;;;;;;42.33;19.53;;;7.40;98.80;;;;;;5029634;28;20926;-75
2021/10/29 01:11:45;;;;;;;40.20;18.80;;;7.40;98.90;;;;;;5029654;28;20431;-72
2021/10/29 01:14:11;;;;;;;42.73;20.30;;;7.40;98.90;;;;;;5028613;28;20594;-75
2021/10/29 01:16:37;;;;;;;44.10;21.47;;;7.40;98.90;;;;;;5029171;28;20189;-73
2021/10/29 01:19:04;;;;;;;43.93;20.57;;;7.40;98.90;;;;;;5028242;28;20430;-73
2021/10/29 01:21:29;;;;;;;43.00;19.23;;;7.30;98.90;;;;;;5020805;28;20439;-73
2021/10/29 01:23:55;;;;;;;41.50;21.07;;;7.40;99.00;;;;;;5026794;28;20974;-72
2021/10/29 01:26:21;;;;;;;46.20;22.40;;;7.50;98.90;;;;;;5028529;28;20923;-73
2021/10/29 01:28:47;;;;;;;38.63;19.40;;;7.50;98.80;;;;;;5028793;28;20189;-73
2021/10/29 01:31:15;;;;;;;40.00;20.20;;;7.50;98.90;;;;;;5026123;28;20196;-73
2021/10/29 01:33:42;;;;;;;46.20;21.10;;;7.50;98.60;;;;;;5028912;28;20502;-72
2021/10/29 01:36:08;;;;;;;46.00;21.97;;;7.50;98.70;;;;;;5029399;28;20815;-73
2021/10/29 01:38:39;;;;;;;45.60;22.47;;;7.40;98.60;;;;;;5028081;28;20420;-72
2021/10/29 01:41:07;;;;;;;44.80;22.63;;;7.30;98.60;;;;;;5028652;28;20422;-73
2021/10/29 01:43:59;;;;;;;44.83;20.93;;;7.30;98.70;;;;;;5033419;28;20985;-72
2021/10/29 01:46:24;;;;;;;44.70;22.00;;;7.30;98.80;;;;;;5030317;28;20451;-72
2021/10/29 01:48:52;;;;;;;40.97;21.70;;;7.30;98.90;;;;;;5030565;28;20412;-73
2021/10/29 01:51:18;;;;;;;55.13;23.97;;;7.30;99.00;;;;;;5030751;28;20246;-72
2021/10/29 01:53:44;;;;;;;47.83;25.70;;;7.30;98.90;;;;;;5032549;28;20501;-73
2021/10/29 01:56:10;;;;;;;58.33;23.40;;;7.30;99.00;;;;;;5032678;28;20497;-74
2021/10/29 01:58:36;;;;;;;48.60;23.30;;;7.30;99.00;;;;;;5033431;28;20420;-73
2021/10/29 02:01:04;;;;;;;41.87;22.97;;;7.30;99.00;;;;;;5032759;28;21394;-72
2021/10/29 02:03:30;;;;;;;45.63;21.20;;;7.40;99.00;;;;;;5032095;28;20878;-73
2021/10/29 02:05:56;;;;;;;39.90;21.60;;;7.30;98.90;;;;;;5033220;28;20527;-75
2021/10/29 02:08:27;;;;;;;50.63;21.50;;;7.30;98.80;;;;;;5035012;28;20511;-73
2021/10/29 02:10:54;;;;;;;49.93;23.90;;;7.30;98.90;;;;;;5035462;28;20771;-72
2021/10/29 02:13:21;;;;;;;45.63;21.40;;;7.30;98.90;;;;;;5033773;28;20463;-73
2021/10/29 02:15:47;;;;;;;49.63;23.70;;;7.30;98.90;;;;;;5033833;28;20493;-72
2021/10/29 02:18:13;;;;;;;48.47;21.50;;;7.30;98.90;;;;;;5034057;28;20416;-72
2021/10/29 02:20:39;;;;;;;46.47;22.37;;;7.30;98.90;;;;;;5034148;28;20423;-72
2021/10/29 02:23:05;;;;;;;42.87;22.40;;;7.30;98.90;;;;;;5032554;28;20428;-72
2021/10/29 02:25:31;;;;;;;42.07;22.20;;;7.20;98.90;;;;;;5037393;28;20728;-73
2021/10/29 02:27:57;;;;;;;38.07;20.77;;;7.20;98.90;;;;;;5043092;28;20185;-73
2021/10/29 02:30:22;;;;;;;39.17;19.33;;;7.20;98.80;;;;;;5042377;28;20432;-74
2021/10/29 02:32:48;;;;;;;35.40;18.70;;;7.20;98.60;;;;;;5036918;28;20371;-72
2021/10/29 02:35:14;;;;;;;38.67;20.00;;;7.10;98.30;;;;;;5033310;28;20227;-72
2021/10/29 02:37:40;;;;;;;39.60;19.37;;;7.10;98.20;;;;;;5034512;28;20278;-71
2021/10/29 02:40:06;;;;;;;43.13;21.00;;;7.00;98.00;;;;;;5033834;28;20447;-72
2021/10/29 02:42:32;;;;;;;45.77;22.33;;;7.00;98.00;;;;;;5033412;28;20181;-72
2021/10/29 02:44:58;;;;;;;40.30;20.00;;;7.00;98.00;;;;;;5032651;28;20456;-72
2021/10/29 02:47:23;;;;;;;43.07;21.30;;;7.00;98.20;;;;;;5033568;28;20204;-72
2021/10/29 02:49:49;;;;;;;38.83;18.17;;;7.00;98.20;;;;;;5032888;28;20698;-73
2021/10/29 02:52:15;;;;;;;39.73;19.37;;;7.00;97.70;;;;;;5033792;28;20654;-72
2021/10/29 02:54:41;;;;;;;39.97;18.30;;;6.90;97.30;;;;;;5032041;28;20573;-73
2021/10/29 02:57:07;;;;;;;44.77;21.10;;;6.80;97.00;;;;;;5033700;28;20447;-72
2021/10/29 02:59:33;;;;;;;37.47;19.03;;;6.80;97.10;;;;;;5032984;28;20918;-73
2021/10/29 03:01:58;;;;;;;41.07;18.97;;;6.70;97.00;;;;;;5033670;28;20232;-73
2021/10/29 03:04:24;;;;;;;34.83;17.40;;;6.70;97.10;;;;;;5032745;28;20735;-72
2021/10/29 03:06:50;;;;;;;36.23;19.70;;;6.70;97.30;;;;;;5033528;28;20185;-73
2021/10/29 03:09:16;;;;;;;41.90;19.30;;;6.70;97.50;;;;;;5033469;28;20197;-73
2021/10/29 03:11:41;;;;;;;44.20;20.87;;;6.60;97.60;;;;;;5033236;28;20181;-72
2021/10/29 03:14:08;;;;;;;39.67;21.40;;;6.60;97.70;;;;;;5033368;28;20220;-72
2021/10/29 03:16:34;;;;;;;38.30;17.90;;;6.50;97.70;;;;;;5030971;28;20852;-71
2021/10/29 03:19:00;;;;;;;36.57;18.87;;;6.50;97.90;;;;;;5036663;28;20420;-71
2021/10/29 03:21:25;;;;;;;39.10;20.40;;;6.50;98.10;;;;;;5036441;28;20415;-72
2021/10/29 03:23:51;;;;;;;38.23;17.80;;;6.50;98.20;;;;;;5034844;28;20656;-73
2021/10/29 03:26:17;;;;;;;40.43;19.80;;;6.50;98.20;;;;;;5039844;28;20193;-72
2021/10/29 03:28:43;;;;;;;40.20;20.30;;;6.50;98.30;;;;;;5037361;28;20586;-74
2021/10/29 03:31:08;;;;;;;43.23;20.17;;;6.50;98.30;;;;;;5035166;28;20216;-71
2021/10/29 03:33:39;;;;;;;46.03;23.13;;;6.50;98.30;;;;;;5033855;28;20948;-72
2021/10/29 03:36:06;;;;;;;53.83;24.20;;;6.50;98.20;;;;;;5033754;28;20189;-73
2021/10/29 03:38:56;;;;;;;38.70;18.30;;;6.40;98.20;;;;;;5034021;28;20417;-73
2021/10/29 03:41:23;;;;;;;41.00;21.23;;;6.40;98.30;;;;;;5034821;28;21297;-72
2021/10/29 03:44:13;;;;;;;42.40;20.83;;;6.40;98.20;;;;;;5035543;28;20431;-72
2021/10/29 03:46:40;;;;;;;38.20;18.90;;;6.30;98.20;;;;;;5034061;28;20408;-73
2021/10/29 03:52:36;;;;;;;47.30;21.10;;;6.30;98.40;;;;;;5034068;28;20438;-72
2021/10/29 03:54:39;;;;;;;45.73;21.93;;;6.40;98.50;;;;;;5026405;28;20920;-74
2021/10/29 03:59:30;;;;;;;40.60;19.20;;;6.30;98.50;;;;;;5034935;28;20430;-71
2021/10/29 04:01:57;;;;;;;36.80;16.47;;;6.30;98.50;;;;;;5034630;28;20181;-72
2021/10/29 04:04:22;;;;;;;36.87;17.03;;;6.20;97.70;;;;;;5032020;28;20291;-74
2021/10/29 04:06:48;;;;;;;34.00;16.73;;;6.10;97.00;;;;;;5032480;28;20507;-72
2021/10/29 04:09:15;;;;;;;33.00;15.97;;;6.00;97.40;;;;;;5033121;28;20423;-72
2021/10/29 04:11:41;;;;;;;35.43;15.30;;;6.00;97.60;;;;;;5032826;28;20182;-71
2021/10/29 04:14:10;;;;;;;33.77;17.87;;;6.00;97.70;;;;;;5031868;28;20472;-74
2021/10/29 04:16:37;;;;;;;31.97;18.40;;;6.00;97.70;;;;;;5032253;28;20417;-74
2021/10/29 04:19:08;;;;;;;40.00;17.80;;;6.00;97.70;;;;;;5033238;28;20427;-72
2021/10/29 04:21:35;;;;;;;32.90;16.10;;;6.00;97.80;;;;;;5024561;28;20439;-74
2021/10/29 04:24:00;;;;;;;37.43;19.97;;;6.00;97.90;;;;;;5032082;28;20865;-73
2021/10/29 04:26:26;;;;;;;44.43;19.33;;;6.00;98.00;;;;;;5033041;28;20415;-72
2021/10/29 04:28:55;;;;;;;39.00;18.70;;;6.00;98.10;;;;;;5033757;28;20643;-71
2021/10/29 04:31:24;;;;;;;36.70;17.93;;;6.00;98.30;;;;;;5031836;28;20711;-72
2021/10/29 04:33:51;;;;;;;41.13;21.70;;;6.00;98.50;;;;;;5030675;28;20495;-73
2021/10/29 04:36:18;;;;;;;46.97;20.97;;;6.00;98.60;;;;;;5031335;28;20420;-73
2021/10/29 04:38:45;;;;;;;42.87;20.17;;;6.00;98.70;;;;;;5030620;28;20428;-74
2021/10/29 04:41:11;;;;;;;37.10;18.87;;;6.00;98.80;;;;;;5030407;28;20762;-72
2021/10/29 04:43:38;;;;;;;45.43;22.17;;;6.00;99.00;;;;;;5031053;28;20451;-73
2021/10/29 04:46:04;;;;;;;56.30;25.90;;;6.10;99.00;;;;;;5031715;28;20522;-73
2021/10/29 04:48:30;;;;;;;51.67;24.87;;;6.10;99.10;;;;;;5031625;28;20427;-73
2021/10/29 04:50:56;;;;;;;51.87;24.80;;;6.10;99.10;;;;;;5031423;28;20430;-74
2021/10/29 04:53:22;;;;;;;48.93;23.30;;;6.10;99.10;;;;;;5031656;28;20204;-73
2021/10/29 04:55:48;;;;;;;48.53;21.17;;;6.10;99.10;;;;;;5031389;28;20462;-74
2021/10/29 04:58:14;;;;;;;46.93;21.20;;;6.10;99.10;;;;;;5032181;28;20446;-74
2021/10/29 05:00:40;;;;;;;46.77;21.10;;;6.10;99.20;;;;;;5032436;28;20420;-72
2021/10/29 05:03:06;;;;;;;49.63;21.47;;;6.10;99.10;;;;;;5032002;28;20416;-73
2021/10/29 05:05:35;;;;;;;49.73;22.43;;;6.10;99.10;;;;;;5030967;28;20702;-74
2021/10/29 05:16:33;;;;;;;42.23;23.40;;;6.10;99.20;;;;;;5897326;22;20497;-75
2021/10/29 05:18:59;;;;;;;40.33;19.67;;;6.10;99.30;;;;;;4949335;28;20524;-70
2021/10/29 05:21:25;;;;;;;36.70;19.70;;;6.00;99.30;;;;;;4952275;28;20495;-73
2021/10/29 05:23:51;;;;;;;33.57;18.73;;;6.00;99.10;;;;;;4946016;28;20208;-74
2021/10/29 05:26:17;;;;;;;43.47;19.90;;;6.00;99.00;;;;;;4951153;29;20427;-74
2021/10/29 05:28:43;;;;;;;35.97;16.90;;;6.00;98.70;;;;;;4949238;28;20424;-73
2021/10/29 05:31:09;;;;;;;47.53;22.27;;;6.00;98.50;;;;;;4955527;28;20432;-73
2021/10/29 05:33:35;;;;;;;45.37;21.27;;;6.00;98.30;;;;;;4953275;28;20223;-72
2021/10/29 05:36:01;;;;;;;34.23;18.20;;;5.90;98.30;;;;;;4954419;28;20432;-72
2021/10/29 05:38:27;;;;;;;46.77;20.13;;;5.90;98.20;;;;;;4949929;28;20255;-72
2021/10/29 05:40:54;;;;;;;42.40;20.30;;;5.90;98.00;;;;;;4947802;28;20496;-71
2021/10/29 05:43:19;;;;;;;44.77;22.67;;;5.80;97.90;;;;;;4945489;29;20251;-75
2021/10/29 05:45:45;;;;;;;42.87;20.77;;;5.80;97.90;;;;;;4951017;28;20431;-71
2021/10/29 05:48:11;;;;;;;34.00;17.77;;;5.90;97.80;;;;;;4956669;28;20749;-73
2021/10/29 05:50:45;;;;;;;41.30;19.33;;;5.80;97.70;;;;;;4962337;28;20215;-72
2021/10/29 05:53:18;;;;;;;33.10;17.83;;;5.80;97.40;;;;;;4952894;28;20191;-73
2021/10/29 05:55:44;;;;;;;37.90;19.53;;;5.80;97.40;;;;;;4950666;28;20470;-73
2021/10/29 05:58:10;;;;;;;37.33;18.10;;;5.80;97.40;;;;;;4947807;29;20451;-73
2021/10/29 06:00:36;;;;;;;38.30;18.13;;;5.80;97.40;;;;;;4951698;28;20231;-73
2021/10/29 06:03:06;;;;;;;38.10;19.57;;;5.80;97.30;;;;;;4952025;28;20188;-71
2021/10/29 06:05:32;;;;;;;37.93;18.87;;;5.70;97.20;;;;;;4951471;28;20420;-72
2021/10/29 06:07:59;;;;;;;33.50;17.33;;;5.70;97.10;;;;;;4950271;29;20432;-74
2021/10/29 06:10:24;;;;;;;40.60;17.37;;;5.70;97.10;;;;;;4950737;29;20520;-73
2021/10/29 06:12:51;;;;;;;33.53;17.80;;;5.80;97.00;;;;;;4953116;28;20514;-74
2021/10/29 06:15:18;;;;;;;35.97;16.80;;;5.70;96.90;;;;;;4950735;28;20479;-75
2021/10/29 06:17:44;;;;;;;30.53;17.10;;;5.80;96.80;;;;;;4948397;28;20813;-75
2021/10/29 06:20:11;;;;;;;29.17;17.30;;;5.80;96.70;;;;;;4950296;28;20474;-75
2021/10/29 06:22:45;;;;;;;28.67;16.40;;;5.70;96.70;;;;;;4951367;28;20428;-75
2021/10/29 06:25:17;;;;;;;31.73;18.07;;;5.70;96.70;;;;;;4952093;28;20451;-74
2021/10/29 06:30:29;;;;;;;31.83;16.73;;;5.70;96.70;;;;;;4953053;29;20511;-74
2021/10/29 06:32:55;;;;;;;33.33;16.73;;;5.80;96.60;;;;;;4951127;28;20522;-75
2021/10/29 06:35:22;;;;;;;37.60;18.03;;;5.90;96.50;;;;;;4950757;28;20534;-75
2021/10/29 06:37:48;;;;;;;40.70;18.00;;;5.90;96.20;;;;;;4952701;28;20440;-74
2021/10/29 06:40:15;;;;;;;38.17;18.30;;;5.90;96.10;;;;;;4951428;28;20429;-74
2021/10/29 06:42:49;;;;;;;35.53;16.60;;;6.00;96.00;;;;;;4955199;29;20566;-75
2021/10/29 06:48:05;;;;;;;35.93;16.30;;;6.00;95.50;;;;;;4952144;28;20494;-75
2021/10/29 07:01:42;;;;;;;30.23;15.00;;;6.30;95.10;;;;;;4955282;29;20475;-75
2021/10/29 07:40:11;;;;;;;33.30;15.57;;;7.40;93.10;;;;;;4952448;29;20430;-75
2021/10/29 07:45:19;;;;;;;28.17;17.23;;;7.50;92.80;;;;;;4952946;28;20451;-74
2021/10/29 07:47:46;;;;;;;36.43;16.07;;;7.60;92.60;;;;;;4948794;28;20425;-75
2021/10/29 07:50:14;;;;;;;34.30;15.60;;;7.60;92.60;;;;;;4952737;29;20858;-75
2021/10/29 07:52:41;;;;;;;26.57;15.03;;;7.70;92.70;;;;;;4952950;28;20523;-76
2021/10/29 07:55:09;;;;;;;32.77;16.37;;;8.00;92.80;;;;;;4951113;28;20559;-75
2021/10/29 07:57:36;;;;;;;30.27;15.40;;;8.10;92.50;;;;;;4952276;28;20431;-75
2021/10/29 08:00:04;;;;;;;31.20;16.50;;;8.30;92.10;;;;;;4954552;28;20427;-75
2021/10/29 08:02:31;;;;;;;30.20;16.40;;;8.40;91.80;;;;;;4946681;29;20499;-74
2021/10/29 08:04:56;;;;;;;35.30;15.67;;;8.40;91.40;;;;;;4946670;28;20455;-75
2021/10/29 08:07:23;;;;;;;23.87;14.33;;;8.50;91.60;;;;;;4954433;28;20428;-75
2021/10/29 08:09:49;;;;;;;27.27;15.10;;;8.60;91.40;;;;;;4953961;28;20242;-75
2021/10/29 08:12:16;;;;;;;29.60;15.53;;;8.70;91.10;;;;;;4953121;29;20490;-74
2021/10/29 08:14:44;;;;;;;24.90;14.67;;;8.70;90.70;;;;;;4947998;28;20497;-74
2021/10/29 08:17:10;;;;;;;21.83;13.53;;;8.80;90.40;;;;;;4947415;28;20472;-74
2021/10/29 08:19:37;;;;;;;24.60;13.80;;;8.80;90.30;;;;;;4957378;28;20510;-74
2021/10/29 08:22:04;;;;;;;21.93;14.10;;;8.80;90.30;;;;;;4963816;28;20443;-73
2021/10/29 08:24:31;;;;;;;25.77;14.10;;;8.90;90.20;;;;;;4966666;28;20506;-74
2021/10/29 08:26:57;;;;;;;24.60;14.63;;;9.20;89.70;;;;;;4960073;28;20431;-74
2021/10/29 08:29:24;;;;;;;32.50;16.57;;;9.30;89.30;;;;;;4955879;28;20509;-75
2021/10/29 08:31:51;;;;;;;23.83;14.23;;;9.40;89.00;;;;;;4948664;29;20415;-74
2021/10/29 08:34:18;;;;;;;28.70;15.37;;;9.50;89.00;;;;;;4953133;28;20478;-75
2021/10/29 08:36:45;;;;;;;27.03;15.83;;;9.60;89.00;;;;;;4954241;28;20420;-75
2021/10/29 08:39:14;;;;;;;24.37;14.73;;;9.70;88.40;;;;;;4954397;28;20915;-74
2021/10/29 08:41:43;;;;;;;23.43;14.57;;;9.70;88.10;;;;;;4954235;28;20427;-76
2021/10/29 08:44:13;;;;;;;25.87;14.77;;;9.80;88.00;;;;;;4959524;28;20451;-74
2021/10/29 08:46:40;;;;;;;28.50;14.30;;;9.90;87.80;;;;;;4951432;28;20475;-75
2021/10/29 08:49:08;;;;;;;25.43;15.40;;;9.90;87.70;;;;;;4943596;28;20436;-75
2021/10/29 08:51:34;;;;;;;23.73;14.77;;;9.80;87.70;;;;;;4949786;28;20534;-74
2021/10/29 08:54:02;;;;;;;25.57;14.87;;;9.60;88.00;;;;;;4949631;28;20471;-75
2021/10/29 08:56:28;;;;;;;28.23;15.27;;;9.60;87.80;;;;;;4946614;29;20442;-75
2021/10/29 08:59:08;;;;;;;22.77;14.50;;;9.50;88.00;;;;;;4947534;28;20450;-74
2021/10/29 09:01:50;;;;;;;27.30;13.67;;;9.40;88.70;;;;;;4942311;29;20510;-75
2021/10/29 09:04:20;;;;;;;29.33;16.10;;;9.50;88.70;;;;;;4948508;29;20447;-75
2021/10/29 09:07:08;;;;;;;27.30;14.40;;;9.30;88.60;;;;;;4949084;28;20431;-74
2021/10/29 09:15:59;;;;;;;29.07;15.53;;;9.20;89.70;;;;;;4948044;29;20430;-74
2021/10/29 09:31:36;;;;;;;29.67;16.07;;;9.60;88.90;;;;;;4945010;29;20431;-74
2021/10/29 09:34:11;;;;;;;25.73;15.00;;;9.60;88.70;;;;;;4943258;28;20494;-75
2021/10/29 09:36:44;;;;;;;26.93;15.07;;;9.70;88.70;;;;;;4942859;29;20426;-75
2021/10/29 09:39:19;;;;;;;32.07;14.70;;;9.80;88.90;;;;;;4942632;29;20436;-75
2021/10/29 09:41:46;;;;;;;27.83;15.87;;;9.90;88.90;;;;;;4948782;28;20595;-74
2021/10/29 09:44:13;;;;;;;25.43;15.00;;;10.00;88.40;;;;;;4949473;28;20554;-77
2021/10/29 09:46:52;;;;;;;37.20;16.80;;;10.10;88.30;;;;;;4950684;28;20493;-75
2021/10/29 09:49:32;;;;;;;66.13;20.00;;;10.30;88.00;;;;;;4951375;28;20443;-74
2021/10/29 09:57:21;;;;;;;28.37;15.97;;;11.00;85.70;;;;;;4951295;28;20462;-75
2021/10/29 09:59:52;;;;;;;218.77;40.63;;;11.10;85.50;;;;;;4948994;28;20419;-76
2021/10/29 10:02:20;;;;;;;26.80;15.63;;;11.10;84.90;;;;;;4954622;28;21109;-76
2021/10/29 10:04:54;;;;;;;87.73;23.47;;;11.20;84.90;;;;;;4953330;28;20957;-76
2021/10/29 10:07:27;;;;;;;83.93;25.13;;;11.40;84.90;;;;;;4952328;28;20491;-76
2021/10/29 10:09:59;;;;;;;73.47;23.37;;;11.60;84.60;;;;;;4951075;28;20442;-76
2021/10/29 10:12:30;;;;;;;89.20;21.70;;;11.80;84.00;;;;;;4944746;28;20431;-76
2021/10/29 10:14:59;;;;;;;31.57;15.50;;;12.00;83.70;;;;;;4945014;28;20471;-76
2021/10/29 10:17:25;;;;;;;463.50;107.27;;;12.30;82.10;;;;;;4946980;28;20475;-74
2021/10/29 10:19:52;;;;;;;25.10;15.73;;;12.60;81.80;;;;;;4953401;28;20447;-75
2021/10/29 10:22:21;;;;;;;24.10;14.77;;;12.80;79.30;;;;;;4947657;28;20424;-76
2021/10/29 10:24:57;;;;;;;22.03;13.90;;;13.00;78.40;;;;;;4952927;28;20455;-75
2021/10/29 10:28:19;;;;;;;24.77;14.70;;;13.10;77.60;;;;;;4948743;29;20473;-76
2021/10/29 10:44:59;;;;;;;37.60;16.87;;;16.00;69.70;;;;;;4952997;28;20437;-74
2021/10/29 10:46:54;;;;;;;84.23;25.40;;;16.60;69.10;;;;;;4950839;28;20468;-76
2021/10/29 10:49:21;;;;;;;33.30;15.30;;;17.00;67.30;;;;;;4947660;29;20431;-77
2021/10/29 10:52:08;;;;;;;36.40;16.30;;;17.50;65.80;;;;;;4948138;29;20558;-75
2021/10/29 10:54:58;;;;;;;27.07;14.67;;;18.00;64.10;;;;;;4950244;28;21009;-76
2021/10/29 11:10:59;;;;;;;24.13;14.60;;;19.60;57.80;;;;;;4954405;28;20462;-77
2021/10/29 11:13:46;;;;;;;18.23;13.80;;;19.70;58.00;;;;;;4953688;28;20538;-76
2021/10/29 11:16:29;;;;;;;27.03;14.20;;;19.20;57.30;;;;;;4955472;29;20435;-75
2021/10/29 11:19:25;;;;;;;24.00;14.23;;;19.30;58.20;;;;;;4953254;29;20436;-76
2021/10/29 11:21:56;;;;;;;28.33;14.77;;;19.50;57.80;;;;;;4955212;29;21012;-75
2021/10/29 11:24:36;;;;;;;26.40;13.80;;;19.50;57.20;;;;;;4955805;28;20443;-74
2021/10/29 11:27:15;;;;;;;28.30;14.90;;;19.20;58.00;;;;;;4958882;28;20571;-76
2021/10/29 11:29:47;;;;;;;23.10;15.17;;;19.20;58.20;;;;;;4957453;28;20438;-74
2021/10/29 11:32:16;;;;;;;20.23;14.20;;;18.80;59.10;;;;;;4957050;28;20422;-75
2021/10/29 11:34:44;;;;;;;23.40;14.60;;;18.40;60.30;;;;;;4946746;28;20471;-75
2021/10/29 11:37:10;;;;;;;20.47;13.70;;;17.80;62.20;;;;;;4948192;29;20517;-75
2021/10/29 11:39:35;;;;;;;19.10;13.40;;;17.70;63.40;;;;;;4945731;29;20584;-75
2021/10/29 11:42:01;;;;;;;18.20;13.67;;;18.00;62.80;;;;;;4944895;28;20187;-75
2021/10/29 11:44:27;;;;;;;24.47;13.93;;;18.00;62.90;;;;;;4951694;28;20208;-75
2021/10/29 11:46:55;;;;;;;21.13;13.37;;;18.10;62.30;;;;;;4951483;28;20184;-75
2021/10/29 11:49:29;;;;;;;22.40;13.90;;;18.20;62.80;;;;;;4950474;29;20197;-74
2021/10/29 11:51:58;;;;;;;18.67;12.43;;;18.40;62.30;;;;;;4948252;29;20535;-75
2021/10/29 11:54:28;;;;;;;22.83;13.70;;;18.60;61.70;;;;;;4949382;28;20576;-74
2021/10/29 12:07:27;;;;;;;26.77;13.70;;;18.60;61.30;;;;;;4943961;29;20468;-74
2021/10/29 12:10:04;;;;;;;31.63;13.67;;;18.30;61.70;;;;;;4948949;28;20798;-73
2021/10/29 12:12:30;;;;;;;19.90;12.90;;;18.20;63.50;;;;;;4945247;29;20542;-75
2021/10/29 12:15:06;;;;;;;26.10;13.10;;;18.10;63.20;;;;;;4941106;29;20505;-73
2021/10/29 12:17:39;;;;;;;19.10;11.97;;;18.20;63.40;;;;;;4945690;29;20998;-74
2021/10/29 12:20:09;;;;;;;22.73;13.50;;;18.20;63.10;;;;;;4947181;28;20446;-74
2021/10/29 12:28:08;;;;;;;24.90;13.50;;;18.30;62.80;;;;;;4941919;29;20489;-75
2021/10/29 12:30:46;;;;;;;16.67;10.77;;;18.30;63.50;;;;;;4950373;28;20492;-74
2021/10/29 12:52:41;;;;;;;15.80;9.47;;;19.50;57.00;;;;;;4960444;28;20538;-75
2021/10/29 13:03:08;;;;;;;9.90;6.47;;;20.10;53.40;;;;;;4955484;28;20470;-75
2021/10/29 13:05:37;;;;;;;13.53;6.67;;;20.10;53.30;;;;;;4950190;29;21232;-75
2021/10/29 13:08:20;;;;;;;8.00;5.73;;;20.00;53.30;;;;;;4951630;29;20431;-76
2021/10/29 13:10:46;;;;;;;7.87;6.03;;;19.90;54.40;;;;;;4945389;28;20435;-75
2021/10/29 13:13:18;;;;;;;9.23;6.57;;;19.70;54.10;;;;;;4943067;29;21133;-77
2021/10/29 13:15:46;;;;;;;10.30;5.87;;;19.70;54.40;;;;;;4952533;29;20893;-77
2021/10/29 13:18:14;;;;;;;8.77;6.20;;;19.90;55.30;;;;;;4949683;28;20468;-78
2021/10/29 13:28:49;;;;;;;10.90;7.90;;;20.60;52.50;;;;;;4966993;28;20191;-76
2021/10/29 13:34:29;;;;;;;8.07;6.40;;;20.50;53.30;;;;;;4966066;28;20461;-76
2021/10/29 13:50:53;;;;;;;9.43;7.00;;;21.30;50.70;;;;;;4971782;28;21034;-75
2021/10/29 13:53:36;;;;;;;12.30;7.60;;;21.00;51.20;;;;;;4975780;28;20459;-76
2021/10/29 13:56:15;;;;;;;10.97;6.90;;;20.60;52.60;;;;;;4968553;28;20540;-76
2021/10/29 14:30:28;;;;;;;13.37;8.03;;;17.40;63.20;;;;;;4950654;29;20470;-76
2021/10/29 14:35:26;;;;;;;13.07;7.20;;;17.10;64.20;;;;;;4952673;28;20478;-76
2021/10/29 14:38:03;;;;;;;11.40;7.00;;;17.10;64.20;;;;;;4952926;29;20185;-76
2021/10/29 14:40:46;;;;;;;8.37;6.20;;;17.10;64.20;;;;;;4945704;29;20423;-75
2021/10/29 15:28:31;;;;;;;12.60;8.17;;;15.40;72.00;;;;;;4945093;29;20852;-73
2021/10/29 15:48:00;;;;;;;12.60;6.80;;;14.80;75.40;;;;;;4945160;29;20477;-74
2021/10/29 15:50:36;;;;;;;11.73;6.97;;;14.60;76.10;;;;;;4951839;29;20438;-74
2021/10/29 15:53:08;;;;;;;12.87;7.00;;;14.40;76.70;;;;;;4952017;28;20575;-76
2021/10/29 15:55:39;;;;;;;12.63;6.57;;;14.20;77.70;;;;;;4945211;29;20475;-73
2021/10/29 15:58:33;;;;;;;10.80;7.40;;;14.10;78.60;;;;;;4947192;29;20438;-74
2021/10/29 16:19:35;;;;;;;18.67;10.70;;;13.50;79.00;;;;;;4951050;29;20471;-72
2021/10/29 16:22:06;;;;;;;13.13;9.03;;;13.40;80.60;;;;;;4950217;28;20439;-74
2021/10/29 16:24:33;;;;;;;16.33;9.60;;;13.30;80.90;;;;;;4949040;28;20977;-74
2021/10/29 16:27:00;;;;;;;17.43;9.90;;;13.30;81.80;;;;;;4953824;29;20824;-73
2021/10/29 16:29:26;;;;;;;15.03;8.90;;;13.10;82.20;;;;;;4951098;28;20420;-74
2021/10/29 16:31:54;;;;;;;19.10;8.63;;;13.00;82.70;;;;;;4951750;28;20431;-72
2021/10/29 16:34:20;;;;;;;14.70;9.80;;;12.70;84.10;;;;;;4956400;28;20467;-75
2021/10/29 16:36:46;;;;;;;15.23;8.93;;;12.60;84.60;;;;;;4957156;29;20478;-73
2021/10/29 16:39:12;;;;;;;12.63;8.53;;;12.60;84.90;;;;;;4950298;28;20216;-73
2021/10/29 16:41:38;;;;;;;20.53;11.17;;;12.50;85.20;;;;;;4951763;28;20458;-75
2021/10/29 16:44:04;;;;;;;15.40;9.27;;;12.70;84.10;;;;;;4947355;28;20721;-76
2021/10/29 16:46:31;;;;;;;15.17;9.50;;;12.70;84.70;;;;;;4945944;29;20954;-73
2021/10/29 16:48:57;;;;;;;14.80;8.63;;;12.70;84.60;;;;;;4947548;29;20435;-76
2021/10/29 16:51:25;;;;;;;18.10;9.30;;;12.60;84.90;;;;;;4951223;28;20980;-73
2021/10/29 16:53:51;;;;;;;17.30;9.17;;;12.60;84.90;;;;;;4944062;28;20447;-74
2021/10/29 16:56:17;;;;;;;11.77;8.47;;;12.60;84.70;;;;;;4947735;28;20549;-73
2021/10/29 16:58:42;;;;;;;12.20;8.73;;;12.50;84.90;;;;;;4945346;28;20986;-72
2021/10/29 17:01:09;;;;;;;15.50;9.10;;;12.40;84.90;;;;;;4946459;28;20638;-74
2021/10/29 17:03:35;;;;;;;14.20;8.93;;;12.40;84.70;;;;;;4942588;28;20710;-74
2021/10/29 17:06:00;;;;;;;14.80;8.90;;;12.40;82.40;;;;;;4945365;29;20440;-74
2021/10/29 17:08:27;;;;;;;16.30;8.10;;;12.40;82.10;;;;;;4949925;29;20195;-72
2021/10/29 17:10:53;;;;;;;17.07;10.10;;;12.30;83.10;;;;;;4949792;29;20442;-72
2021/10/29 17:13:18;;;;;;;19.13;10.10;;;12.20;83.70;;;;;;4951138;28;20463;-74
2021/10/29 17:15:44;;;;;;;14.43;8.70;;;12.10;84.10;;;;;;4940857;28;20888;-74
2021/10/29 17:18:11;;;;;;;14.03;8.30;;;12.10;84.30;;;;;;4951765;28;20572;-74
2021/10/29 17:20:37;;;;;;;20.80;9.37;;;12.00;84.10;;;;;;4952814;29;20427;-72
2021/10/29 17:23:04;;;;;;;16.80;8.80;;;11.90;84.40;;;;;;4951989;28;20510;-73
2021/10/29 17:25:30;;;;;;;19.90;10.20;;;11.90;84.40;;;;;;4942135;29;20450;-75
2021/10/29 17:27:56;;;;;;;16.80;10.47;;;11.90;83.70;;;;;;4952174;28;20486;-75
2021/10/29 17:30:22;;;;;;;17.53;9.00;;;11.80;84.30;;;;;;4950484;29;20529;-73
2021/10/29 17:32:49;;;;;;;17.27;10.20;;;11.80;85.70;;;;;;4945392;29;20188;-71
2021/10/29 17:35:16;;;;;;;19.83;10.43;;;11.80;85.30;;;;;;4949308;29;20503;-73
2021/10/29 17:37:42;;;;;;;16.70;9.77;;;11.90;86.00;;;;;;4951534;29;20427;-72
2021/10/29 17:40:10;;;;;;;14.57;9.70;;;11.90;85.30;;;;;;4952829;29;21116;-74
2021/10/29 17:42:36;;;;;;;16.53;10.40;;;11.80;85.50;;;;;;4951590;29;20423;-73
2021/10/29 17:45:06;;;;;;;16.97;11.67;;;11.70;85.70;;;;;;4951817;28;20451;-74
2021/10/29 17:47:31;;;;;;;22.03;12.47;;;11.70;85.70;;;;;;4944823;29;21099;-73